Time;durP1;ratioP1;P1;durP2;ratioP2;P2;SDS_P1;SDS_P2;PMS_P1;PMS_P2;Temp;Humidity;BMP_temperature;BMP_pressure;BME280_temperature;BME280_humidity;BME280_pressure;Samples;Min_cycle;Max_cycle;Signal;HPM_P1;HPM_P2
2023/01/27 00:02:21;;;;;;;;;;;;;;;1.75;93.90;98991.94;5093129;28;20405;-41
2023/01/27 00:04:46;;;;;;;;;;;;;;;1.87;93.92;98988.03;5092762;28;19923;-41
2023/01/27 00:07:11;;;;;;;;;;;;;;;1.88;93.50;99001.94;5092580;28;19912;-41
2023/01/27 00:09:37;;;;;;;;;;;;;;;1.95;91.83;99006.38;5092745;28;20375;-42
2023/01/27 00:14:46;;;;;;;;;;;;;;;2.07;92.77;99006.03;5093069;28;19919;-42
2023/01/27 00:17:11;;;;;;;;;;;;;;;2.05;92.77;99008.81;5092727;28;19912;-41
2023/01/27 00:19:36;;;;;;;;;;;;;;;1.99;92.89;98999.00;5092947;28;20046;-41
2023/01/27 00:24:46;;;;;;;;;;;;;;;1.84;93.44;98987.53;5093658;28;19962;-42
2023/01/27 00:27:11;;;;;;;;;;;;;;;1.93;92.49;98987.34;5093202;28;19951;-41
2023/01/27 00:29:37;;;;;;;;;;;;;;;1.73;93.35;98970.31;5093039;28;20049;-41
2023/01/27 00:34:46;;;;;;;;;;;;;;;1.55;93.42;98960.81;5093650;28;19919;-41
2023/01/27 00:37:12;;;;;;;;;;;;;;;1.63;93.51;98967.06;5093036;28;19912;-41
2023/01/27 00:39:37;;;;;;;;;;;;;;;1.74;93.39;98966.72;5092902;28;19911;-42
2023/01/27 00:42:03;;;;;;;;;;;;;;;1.65;92.48;98971.13;5093086;28;19933;-41
2023/01/27 00:44:28;;;;;;;;;;;;;;;1.77;92.06;98976.84;5092945;28;19938;-41
2023/01/27 00:46:53;;;;;;;;;;;;;;;1.69;91.41;98974.25;5092769;28;20015;-42
2023/01/27 00:49:18;;;;;;;;;;;;;;;1.67;91.41;98966.53;5093352;28;19918;-42
2023/01/27 00:51:44;;;;;;;;;;;;;;;1.61;92.73;98961.16;5092365;28;19916;-40
2023/01/27 00:54:09;;;;;;;;;;;;;;;1.60;93.71;98975.22;5092600;28;19986;-41
2023/01/27 00:56:34;;;;;;;;;;;;;;;1.76;90.63;98973.44;5092712;28;20236;-41
2023/01/27 00:59:00;;;;;;;;;;;;;;;1.52;92.43;98953.28;5092649;28;19918;-42
2023/01/27 01:01:26;;;;;;;;;;;;;;;1.68;93.06;98946.41;5092408;28;19916;-42
2023/01/27 01:03:51;;;;;;;;;;;;;;;1.73;90.46;98937.03;5092659;28;19912;-41
2023/01/27 01:06:17;;;;;;;;;;;;;;;1.99;89.41;98930.75;5092489;28;19922;-41
2023/01/27 01:08:42;;;;;;;;;;;;;;;1.98;90.64;98900.25;5092393;28;19939;-41
2023/01/27 01:11:09;;;;;;;;;;;;;;;1.85;92.40;98892.09;5092450;28;19916;-42
2023/01/27 01:13:35;;;;;;;;;;;;;;;1.67;92.88;98893.09;5092638;28;19916;-42
2023/01/27 01:16:07;;;;;;;;;;;;;;;1.83;90.81;98892.25;5092405;28;19938;-42
2023/01/27 01:18:33;;;;;;;;;;;;;;;2.12;88.05;98893.50;5092304;28;20577;-42
2023/01/27 01:20:59;;;;;;;;;;;;;;;2.25;87.72;98935.78;5092400;28;19920;-42
2023/01/27 01:23:24;;;;;;;;;;;;;;;2.30;86.94;98958.88;5092508;28;19949;-42
2023/01/27 01:25:53;;;;;;;;;;;;;;;2.28;87.04;98969.53;5092056;28;20287;-41
2023/01/27 01:28:19;;;;;;;;;;;;;;;2.65;85.99;98957.59;5092123;28;19916;-42
2023/01/27 01:30:44;;;;;;;;;;;;;;;2.35;87.33;98969.69;5092212;28;19916;-42
2023/01/27 01:33:09;;;;;;;;;;;;;;;2.50;85.56;98972.44;5092203;28;19912;-42
2023/01/27 01:35:36;;;;;;;;;;;;;;;2.53;85.77;98965.06;5092053;28;20303;-42
2023/01/27 01:38:01;;;;;;;;;;;;;;;2.71;84.48;98953.47;5091888;28;19923;-42
2023/01/27 01:40:26;;;;;;;;;;;;;;;2.58;84.45;98934.81;5092170;28;19912;-42
2023/01/27 01:42:52;;;;;;;;;;;;;;;2.59;84.99;98934.66;5092040;28;19916;-42
2023/01/27 01:45:32;;;;;;;;;;;;;;;2.63;85.18;98933.31;5092202;28;20026;-42
2023/01/27 01:48:16;;;;;;;;;;;;;;;3.11;82.51;98934.00;5091824;28;19923;-42
2023/01/27 01:50:44;;;;;;;;;;;;;;;3.18;81.13;98923.63;5091858;28;19981;-42
2023/01/27 01:53:10;;;;;;;;;;;;;;;3.37;79.88;98909.16;5092098;28;19912;-42
2023/01/27 01:55:36;;;;;;;;;;;;;;;3.06;81.08;98904.78;5091772;28;19973;-43
2023/01/27 01:58:03;;;;;;;;;;;;;;;3.17;80.96;98898.31;5091617;28;19912;-42
2023/01/27 02:00:28;;;;;;;;;;;;;;;3.17;80.55;98900.94;5091770;28;19912;-42
2023/01/27 02:02:54;;;;;;;;;;;;;;;3.14;80.98;98896.00;5089117;28;19927;-42
2023/01/27 02:05:27;;;;;;;;;;;;;;;3.04;80.83;98901.50;5091808;28;19912;-42
2023/01/27 02:07:56;;;;;;;;;;;;;;;2.79;81.12;98905.31;5091826;28;19913;-42
2023/01/27 02:10:21;;;;;;;;;;;;;;;3.16;80.95;98898.47;5091458;28;19912;-43
2023/01/27 02:12:47;;;;;;;;;;;;;;;3.22;80.50;98877.56;5091763;28;19961;-42
2023/01/27 02:15:12;;;;;;;;;;;;;;;3.01;80.77;98885.28;5091833;28;20359;-42
2023/01/27 02:17:37;;;;;;;;;;;;;;;3.04;79.56;98891.00;5091435;28;19922;-42
2023/01/27 02:20:21;;;;;;;;;;;;;;;2.87;80.09;98885.03;5091395;28;20482;-42
2023/01/27 02:22:55;;;;;;;;;;;;;;;2.91;79.40;98867.09;5091616;28;19917;-42
2023/01/27 02:25:28;;;;;;;;;;;;;;;2.49;80.46;98857.84;5091660;28;19912;-42
2023/01/27 02:27:53;;;;;;;;;;;;;;;2.19;84.77;98854.22;5091511;28;19948;-42
2023/01/27 02:30:18;;;;;;;;;;;;;;;2.40;82.87;98845.75;5091886;28;19996;-43
2023/01/27 02:32:44;;;;;;;;;;;;;;;2.40;83.22;98837.88;5091931;28;19934;-42
2023/01/27 02:35:12;;;;;;;;;;;;;;;2.80;83.06;98842.06;5091522;28;19999;-40
2023/01/27 02:37:38;;;;;;;;;;;;;;;2.55;81.66;98854.53;5091588;28;20344;-43
2023/01/27 02:40:03;;;;;;;;;;;;;;;2.21;81.14;98860.97;5091598;28;19912;-43
2023/01/27 02:42:29;;;;;;;;;;;;;;;2.17;84.66;98856.22;5091264;28;20352;-43
2023/01/27 02:44:54;;;;;;;;;;;;;;;2.65;85.76;98843.81;5091441;28;19933;-42
2023/01/27 02:47:19;;;;;;;;;;;;;;;3.27;86.69;98845.47;5091385;28;19990;-42
2023/01/27 02:49:45;;;;;;;;;;;;;;;3.58;84.32;98866.41;5091328;28;19917;-42
2023/01/27 02:52:10;;;;;;;;;;;;;;;3.94;81.91;98857.81;5091738;28;19912;-42
2023/01/27 02:54:35;;;;;;;;;;;;;;;3.21;86.98;98840.94;5091339;28;20006;-43
2023/01/27 02:57:01;;;;;;;;;;;;;;;2.54;88.19;98847.66;5091082;28;19935;-42
2023/01/27 02:59:26;;;;;;;;;;;;;;;2.60;89.32;98856.66;5091154;28;20036;-42
2023/01/27 03:01:51;;;;;;;;;;;;;;;2.44;88.80;98853.13;5091506;28;19955;-42
2023/01/27 03:04:16;;;;;;;;;;;;;;;2.23;90.34;98834.50;5091273;28;19916;-42
2023/01/27 03:06:42;;;;;;;;;;;;;;;2.90;89.53;98833.94;5091017;28;19923;-42
2023/01/27 03:09:07;;;;;;;;;;;;;;;3.10;87.25;98816.72;5091139;28;20243;-41
2023/01/27 03:14:16;;;;;;;;;;;;;;;2.41;87.94;98819.31;5093037;28;19927;-42
2023/01/27 03:19:25;;;;;;;;;;;;;;;2.96;86.60;98814.84;5094726;28;19954;-42
2023/01/27 03:21:55;;;;;;;;;;;;;;;2.42;89.33;98830.63;5094336;28;19998;-43
2023/01/27 03:24:20;;;;;;;;;;;;;;;2.57;91.22;98834.19;5094582;28;20064;-40
2023/01/27 03:26:45;;;;;;;;;;;;;;;2.63;89.87;98857.13;5094462;28;19999;-43
2023/01/27 03:31:54;;;;;;;;;;;;;;;2.50;89.40;98856.88;5094438;28;20334;-43
2023/01/27 03:34:19;;;;;;;;;;;;;;;2.48;90.02;98854.41;5094337;28;19912;-42
2023/01/27 03:47:40;;;;;;;;;;;;;;;2.33;92.37;98845.66;5094243;28;19955;-43
2023/01/27 03:50:10;;;;;;;;;;;;;;;2.27;91.67;98839.28;5093913;28;19911;-42
2023/01/27 03:52:35;;;;;;;;;;;;;;;2.46;91.54;98845.91;5093849;28;19916;-40
2023/01/27 03:55:01;;;;;;;;;;;;;;;2.52;91.13;98847.00;5093990;28;19916;-43
2023/01/27 03:57:26;;;;;;;;;;;;;;;2.47;92.10;98851.97;5094671;28;19918;-43
2023/01/27 03:59:51;;;;;;;;;;;;;;;2.46;92.01;98845.09;5093943;28;19918;-42
2023/01/27 04:07:44;;;;;;;;;;;;;;;2.60;92.25;98825.13;5094245;28;19958;-41
2023/01/27 04:10:09;;;;;;;;;;;;;;;2.64;91.87;98813.28;5093584;28;20402;-41
2023/01/27 04:12:35;;;;;;;;;;;;;;;2.51;92.01;98816.47;5093333;28;19913;-41
2023/01/27 04:15:00;;;;;;;;;;;;;;;2.56;91.15;98823.84;5093337;28;19912;-41
2023/01/27 04:17:25;;;;;;;;;;;;;;;2.52;91.52;98816.31;5093761;28;19994;-41
2023/01/27 04:19:50;;;;;;;;;;;;;;;2.61;91.43;98817.09;5093450;28;19927;-41
2023/01/27 04:22:16;;;;;;;;;;;;;;;2.40;92.40;98819.50;5093129;28;19920;-42
2023/01/27 04:24:41;;;;;;;;;;;;;;;2.22;92.40;98815.34;5092817;28;19912;-42
2023/01/27 04:27:08;;;;;;;;;;;;;;;2.21;92.90;98816.34;5092931;28;19913;-42
2023/01/27 04:29:35;;;;;;;;;;;;;;;2.12;92.72;98810.28;5093254;28;19912;-42
2023/01/27 04:32:02;;;;;;;;;;;;;;;2.26;92.54;98811.38;5093529;28;19969;-41
2023/01/27 04:34:27;;;;;;;;;;;;;;;2.23;92.81;98800.38;5093353;28;19994;-42
2023/01/27 04:36:53;;;;;;;;;;;;;;;2.34;92.59;98792.13;5093148;28;20343;-42
2023/01/27 04:39:18;;;;;;;;;;;;;;;2.26;92.05;98797.44;5093048;28;19916;-43
2023/01/27 04:41:44;;;;;;;;;;;;;;;2.16;92.82;98797.66;5092943;28;19912;-42
2023/01/27 04:44:10;;;;;;;;;;;;;;;2.25;92.68;98794.00;5092924;28;19916;-42
2023/01/27 04:46:35;;;;;;;;;;;;;;;2.44;91.19;98803.22;5093033;28;20252;-42
2023/01/27 04:49:01;;;;;;;;;;;;;;;2.29;91.59;98797.91;5092853;28;19947;-41
2023/01/27 04:51:26;;;;;;;;;;;;;;;2.38;90.46;98803.09;5092605;28;19920;-41
2023/01/27 04:53:52;;;;;;;;;;;;;;;2.28;90.28;98806.75;5092614;28;19912;-41
2023/01/27 04:56:20;;;;;;;;;;;;;;;2.48;90.32;98801.91;5092709;28;19912;-41
2023/01/27 04:58:45;;;;;;;;;;;;;;;2.38;88.21;98797.84;5092820;28;19919;-42
2023/01/27 05:01:11;;;;;;;;;;;;;;;2.40;89.50;98795.88;5092745;28;19912;-41
2023/01/27 05:03:36;;;;;;;;;;;;;;;2.75;87.03;98783.97;5091877;28;20639;-42
2023/01/27 05:06:01;;;;;;;;;;;;;;;2.73;88.29;98791.22;5081168;28;19913;-41
2023/01/27 05:08:26;;;;;;;;;;;;;;;2.67;87.88;98797.97;5072432;28;19917;-41
2023/01/27 05:10:52;;;;;;;;;;;;;;;2.81;86.23;98808.72;5072114;28;20029;-41
2023/01/27 05:13:17;;;;;;;;;;;;;;;2.79;85.94;98823.84;5072243;28;20010;-41
2023/01/27 05:15:42;;;;;;;;;;;;;;;2.94;85.68;98815.00;5072047;28;20350;-41
2023/01/27 05:18:07;;;;;;;;;;;;;;;2.99;85.28;98819.75;5072068;28;20010;-41
2023/01/27 05:20:33;;;;;;;;;;;;;;;3.03;84.49;98828.91;5071606;28;19947;-42
2023/01/27 05:25:45;;;;;;;;;;;;;;;3.11;85.90;98834.09;5071723;28;19962;-41
2023/01/27 05:28:12;;;;;;;;;;;;;;;3.28;85.43;98839.22;5070700;28;20295;-47
2023/01/27 05:30:38;;;;;;;;;;;;;;;3.15;86.92;98837.19;5071405;28;20379;-47
2023/01/27 05:33:03;;;;;;;;;;;;;;;3.42;85.10;98827.91;5071043;28;19912;-48
2023/01/27 05:35:31;;;;;;;;;;;;;;;2.99;86.66;98826.81;5071632;28;19963;-48
2023/01/27 05:37:56;;;;;;;;;;;;;;;2.97;85.76;98834.88;5087775;28;19912;-48
2023/01/27 05:40:22;;;;;;;;;;;;;;;2.83;86.20;98841.72;5091301;28;20007;-46
2023/01/27 05:42:47;;;;;;;;;;;;;;;2.88;85.13;98831.50;5091237;28;19920;-47
2023/01/27 05:45:12;;;;;;;;;;;;;;;2.92;85.42;98835.41;5091491;28;19963;-47
2023/01/27 05:47:37;;;;;;;;;;;;;;;3.04;83.60;98824.47;5091118;28;19912;-47
2023/01/27 05:50:03;;;;;;;;;;;;;;;3.09;83.71;98830.03;5091099;28;20018;-47
2023/01/27 05:52:28;;;;;;;;;;;;;;;3.11;82.98;98844.63;5091016;28;20348;-41
2023/01/27 05:54:53;;;;;;;;;;;;;;;2.97;85.55;98840.16;5090566;28;20354;-42
2023/01/27 05:57:18;;;;;;;;;;;;;;;2.91;87.42;98835.56;5089558;28;19912;-41
2023/01/27 05:59:44;;;;;;;;;;;;;;;2.89;87.36;98840.19;5089329;28;20458;-41
2023/01/27 06:02:10;;;;;;;;;;;;;;;2.79;88.53;98835.16;5088211;28;19913;-41
2023/01/27 06:04:35;;;;;;;;;;;;;;;2.74;88.03;98838.34;5088524;28;19916;-42
2023/01/27 06:07:00;;;;;;;;;;;;;;;2.76;88.74;98840.78;5088211;28;20386;-41
2023/01/27 06:09:26;;;;;;;;;;;;;;;3.09;88.18;98828.19;5083914;28;19965;-42
2023/01/27 06:11:51;;;;;;;;;;;;;;;2.85;89.62;98818.69;5098725;28;19915;-42
2023/01/27 06:14:18;;;;;;;;;;;;;;;2.91;88.50;98812.75;5070522;28;19908;-42
2023/01/27 06:16:46;;;;;;;;;;;;;;;2.95;88.80;98807.94;5070610;28;19919;-42
2023/01/27 06:19:11;;;;;;;;;;;;;;;2.83;88.90;98804.09;5069894;28;19999;-42
2023/01/27 06:21:36;;;;;;;;;;;;;;;2.82;90.01;98819.06;5069395;28;20051;-43
2023/01/27 06:24:03;;;;;;;;;;;;;;;2.77;90.46;98821.41;5069924;28;19971;-42
2023/01/27 06:26:28;;;;;;;;;;;;;;;2.70;91.34;98847.56;5069912;28;19919;-42
2023/01/27 06:28:54;;;;;;;;;;;;;;;2.76;91.60;98845.22;5069693;28;19917;-42
2023/01/27 06:31:20;;;;;;;;;;;;;;;2.93;90.97;98836.22;5068732;28;19919;-42
2023/01/27 06:33:45;;;;;;;;;;;;;;;3.04;91.22;98838.41;5067797;28;20037;-42
2023/01/27 06:36:12;;;;;;;;;;;;;;;3.22;90.22;98838.13;5067745;28;20380;-41
2023/01/27 06:38:37;;;;;;;;;;;;;;;3.49;89.79;98834.09;5067775;28;19939;-41
2023/01/27 06:41:02;;;;;;;;;;;;;;;3.35;89.61;98834.91;5068517;28;19913;-42
2023/01/27 06:43:28;;;;;;;;;;;;;;;3.39;89.01;98828.28;5068756;28;19974;-41
2023/01/27 06:45:53;;;;;;;;;;;;;;;3.58;88.85;98845.34;5069042;28;19944;-42
2023/01/27 06:48:19;;;;;;;;;;;;;;;3.46;88.92;98834.44;5074533;28;20334;-42
2023/01/27 06:50:44;;;;;;;;;;;;;;;3.52;88.92;98831.09;5092111;28;19912;-42
2023/01/27 06:53:10;;;;;;;;;;;;;;;3.57;89.07;98827.09;5093233;28;20003;-42
2023/01/27 06:55:40;;;;;;;;;;;;;;;3.65;88.63;98829.63;5093424;28;19989;-42
2023/01/27 06:58:09;;;;;;;;;;;;;;;3.76;88.52;98831.00;5093818;28;19916;-42
2023/01/27 07:00:35;;;;;;;;;;;;;;;3.53;88.83;98831.91;5093389;28;19912;-42
2023/01/27 07:03:00;;;;;;;;;;;;;;;3.82;87.57;98833.72;5093249;28;19916;-42
2023/01/27 07:05:26;;;;;;;;;;;;;;;3.91;87.38;98826.56;5093578;28;19919;-43
2023/01/27 07:07:51;;;;;;;;;;;;;;;4.08;86.70;98842.97;5093365;28;19919;-42
2023/01/27 07:10:17;;;;;;;;;;;;;;;4.24;85.99;98840.13;5093461;28;19912;-42
2023/01/27 07:12:42;;;;;;;;;;;;;;;4.07;87.07;98841.34;5093571;28;20364;-41
2023/01/27 07:15:08;;;;;;;;;;;;;;;3.83;87.88;98830.09;5092728;28;20024;-42
2023/01/27 07:17:34;;;;;;;;;;;;;;;4.08;87.65;98842.97;5093146;28;20007;-42
2023/01/27 07:19:59;;;;;;;;;;;;;;;3.97;87.18;98838.19;5093001;28;20375;-42
2023/01/27 07:22:25;;;;;;;;;;;;;;;4.15;87.15;98843.88;5092467;28;20411;-42
2023/01/27 07:24:50;;;;;;;;;;;;;;;4.22;90.59;98849.22;5093005;28;19931;-43
2023/01/27 07:27:16;;;;;;;;;;;;;;;4.88;94.36;98846.50;5093489;28;19912;-42
2023/01/27 07:29:41;;;;;;;;;;;;;;;5.36;91.95;98845.88;5093629;28;19912;-43
2023/01/27 07:32:06;;;;;;;;;;;;;;;5.57;81.46;98837.09;5093539;28;19912;-42
2023/01/27 07:34:31;;;;;;;;;;;;;;;5.39;81.42;98840.25;5093638;28;19954;-42
2023/01/27 07:36:57;;;;;;;;;;;;;;;5.16;85.08;98836.00;5092505;28;20356;-42
2023/01/27 07:39:23;;;;;;;;;;;;;;;5.18;85.84;98839.25;5092973;28;19919;-42
2023/01/27 07:41:48;;;;;;;;;;;;;;;5.12;85.00;98840.00;5093425;28;19920;-42
2023/01/27 07:44:13;;;;;;;;;;;;;;;4.89;85.42;98838.41;5093333;28;19916;-42
2023/01/27 07:46:39;;;;;;;;;;;;;;;5.06;85.59;98835.50;5092036;28;19912;-41
2023/01/27 07:49:04;;;;;;;;;;;;;;;4.88;85.10;98830.69;5093201;28;20065;-41
2023/01/27 07:51:29;;;;;;;;;;;;;;;5.09;83.92;98827.22;5092824;28;19923;-42
2023/01/27 07:53:55;;;;;;;;;;;;;;;5.59;84.39;98832.44;5092691;28;19969;-42
2023/01/27 07:56:20;;;;;;;;;;;;;;;5.73;79.44;98828.06;5093610;28;20040;-41
2023/01/27 07:58:45;;;;;;;;;;;;;;;5.46;79.31;98822.59;5108111;28;19912;-43
2023/01/27 08:01:11;;;;;;;;;;;;;;;5.40;79.80;98824.19;5092022;28;20069;-41
2023/01/27 08:03:37;;;;;;;;;;;;;;;5.16;80.17;98828.09;5092230;28;19920;-42
2023/01/27 08:06:03;;;;;;;;;;;;;;;5.21;80.02;98822.22;5093663;28;19912;-43
2023/01/27 08:08:28;;;;;;;;;;;;;;;5.21;80.47;98822.22;5093197;28;20011;-43
2023/01/27 08:10:57;;;;;;;;;;;;;;;5.06;80.76;98827.56;5092963;28;19912;-42
2023/01/27 08:13:22;;;;;;;;;;;;;;;4.99;81.32;98831.97;5093123;28;19919;-43
2023/01/27 08:15:53;;;;;;;;;;;;;;;5.07;80.84;98832.66;5092958;28;19912;-42
2023/01/27 08:18:18;;;;;;;;;;;;;;;4.89;80.82;98834.94;5092874;28;20033;-43
2023/01/27 08:20:44;;;;;;;;;;;;;;;4.88;81.34;98820.13;5092869;28;19924;-45
2023/01/27 08:23:09;;;;;;;;;;;;;;;4.83;82.05;98825.16;5092660;28;19916;-42
2023/01/27 08:25:34;;;;;;;;;;;;;;;4.56;82.04;98814.34;5092902;28;19916;-42
2023/01/27 08:27:59;;;;;;;;;;;;;;;4.55;82.29;98802.19;5092521;28;19932;-42
2023/01/27 08:30:25;;;;;;;;;;;;;;;4.79;82.08;98797.53;5092608;28;19977;-44
2023/01/27 08:32:50;;;;;;;;;;;;;;;4.82;81.61;98790.06;5092297;28;19919;-43
2023/01/27 08:35:16;;;;;;;;;;;;;;;4.82;82.41;98782.16;5092240;28;19948;-43
2023/01/27 08:37:41;;;;;;;;;;;;;;;4.92;82.25;98773.13;5092279;28;19918;-44
2023/01/27 08:40:07;;;;;;;;;;;;;;;4.75;83.34;98777.84;5091198;28;19912;-43
2023/01/27 08:42:32;;;;;;;;;;;;;;;4.59;84.06;98777.09;5092024;28;19924;-43
2023/01/27 08:44:59;;;;;;;;;;;;;;;4.90;83.16;98778.56;5092370;28;19912;-44
2023/01/27 08:47:24;;;;;;;;;;;;;;;4.96;83.05;98780.44;5092126;28;19923;-43
2023/01/27 08:49:50;;;;;;;;;;;;;;;4.70;83.77;98786.28;5092410;28;19912;-44
2023/01/27 08:52:15;;;;;;;;;;;;;;;4.80;84.75;98791.28;5092310;28;20027;-44
2023/01/27 08:54:40;;;;;;;;;;;;;;;4.61;84.87;98793.53;5092262;28;19912;-44
2023/01/27 08:57:05;;;;;;;;;;;;;;;4.64;84.28;98798.41;5099736;28;19918;-45
2023/01/27 08:59:31;;;;;;;;;;;;;;;4.72;84.83;98805.38;5112196;28;19951;-44
2023/01/27 09:01:56;;;;;;;;;;;;;;;4.72;84.12;98812.47;5112434;28;20307;-42
2023/01/27 09:04:22;;;;;;;;;;;;;;;4.71;84.69;98806.38;5112031;28;19927;-44
2023/01/27 09:06:49;;;;;;;;;;;;;;;4.75;84.81;98798.91;5111936;28;20436;-43
2023/01/27 09:09:14;;;;;;;;;;;;;;;4.69;84.60;98796.03;5111851;28;19912;-43
2023/01/27 09:11:40;;;;;;;;;;;;;;;4.96;84.01;98795.44;5111709;28;19919;-43
2023/01/27 09:14:06;;;;;;;;;;;;;;;5.05;83.40;98803.03;5112292;28;19915;-44
2023/01/27 09:16:31;;;;;;;;;;;;;;;5.16;82.55;98808.78;5111854;28;19915;-44
2023/01/27 09:18:57;;;;;;;;;;;;;;;4.96;83.58;98801.53;5112254;28;19922;-46
2023/01/27 09:21:22;;;;;;;;;;;;;;;5.40;82.64;98795.16;5111805;28;19924;-44
2023/01/27 09:23:48;;;;;;;;;;;;;;;5.09;82.33;98785.00;5111919;28;19916;-45
2023/01/27 09:26:13;;;;;;;;;;;;;;;5.06;82.71;98783.59;5111694;28;20333;-46
2023/01/27 09:28:39;;;;;;;;;;;;;;;5.09;82.77;98775.28;5111699;28;19938;-45
2023/01/27 09:31:04;;;;;;;;;;;;;;;5.27;82.44;98766.06;5110939;28;19915;-44
2023/01/27 09:33:29;;;;;;;;;;;;;;;5.22;82.38;98764.00;5112459;28;19912;-46
2023/01/27 09:35:59;;;;;;;;;;;;;;;5.28;80.87;98765.06;5095150;28;19928;-45
2023/01/27 09:38:27;;;;;;;;;;;;;;;5.11;81.87;98747.91;5091113;28;20405;-44
2023/01/27 09:41:01;;;;;;;;;;;;;;;5.03;82.66;98749.66;5089905;28;20296;-44
2023/01/27 09:43:29;;;;;;;;;;;;;;;5.23;82.18;98739.25;5090797;28;19927;-45
2023/01/27 09:46:00;;;;;;;;;;;;;;;5.15;81.73;98738.59;5091052;28;20331;-46
2023/01/27 09:48:40;;;;;;;;;;;;;;;5.13;81.93;98737.97;5090794;28;19963;-44
2023/01/27 09:51:17;;;;;;;;;;;;;;;5.38;81.46;98744.41;5090150;28;20014;-45
2023/01/27 09:53:54;;;;;;;;;;;;;;;5.07;81.81;98739.56;5090003;28;19962;-46
2023/01/27 09:56:29;;;;;;;;;;;;;;;5.02;82.03;98747.22;5091281;28;20018;-44
2023/01/27 09:59:00;;;;;;;;;;;;;;;5.06;82.09;98751.09;5109980;27;19912;-45
2023/01/27 10:01:30;;;;;;;;;;;;;;;4.82;83.17;98753.16;5110203;28;19912;-45
2023/01/27 10:04:14;;;;;;;;;;;;;;;5.00;82.32;98754.50;5110354;28;19919;-44
2023/01/27 10:06:42;;;;;;;;;;;;;;;4.84;83.54;98755.59;5085120;28;20385;-45
2023/01/27 10:09:08;;;;;;;;;;;;;;;5.07;83.15;98750.09;5094763;28;20388;-46
2023/01/27 10:11:39;;;;;;;;;;;;;;;5.13;82.47;98740.59;5090498;28;19924;-45
2023/01/27 10:14:13;;;;;;;;;;;;;;;5.13;81.67;98733.50;5089540;28;19931;-43
2023/01/27 10:16:38;;;;;;;;;;;;;;;5.43;81.53;98738.56;5086036;28;20019;-46
2023/01/27 10:19:09;;;;;;;;;;;;;;;4.99;82.55;98737.03;5085283;28;20388;-46
2023/01/27 10:21:47;;;;;;;;;;;;;;;4.68;83.87;98733.78;5088678;28;19930;-43
2023/01/27 10:24:18;;;;;;;;;;;;;;;5.17;83.04;98734.75;5094839;28;19967;-44
2023/01/27 10:26:50;;;;;;;;;;;;;;;4.93;83.49;98722.84;5094027;28;20384;-48
2023/01/27 10:29:26;;;;;;;;;;;;;;;5.42;82.96;98708.72;5092227;28;19923;-46
2023/01/27 10:31:56;;;;;;;;;;;;;;;5.26;82.71;98701.94;5093935;28;20375;-46
2023/01/27 10:34:22;;;;;;;;;;;;;;;5.26;82.87;98707.22;5093438;28;20004;-45
2023/01/27 10:36:53;;;;;;;;;;;;;;;5.09;83.41;98704.06;5098137;28;19974;-45
2023/01/27 10:39:43;;;;;;;;;;;;;;;5.24;82.29;98697.88;5090848;28;19920;-46
2023/01/27 10:42:27;;;;;;;;;;;;;;;5.33;83.15;98704.63;5091859;28;19923;-47
2023/01/27 10:45:14;;;;;;;;;;;;;;;5.18;82.97;98694.19;5094354;28;20415;-44
2023/01/27 10:47:52;;;;;;;;;;;;;;;5.39;82.16;98692.47;5095710;28;19916;-46
2023/01/27 10:50:20;;;;;;;;;;;;;;;5.60;81.79;98675.72;5094069;28;19912;-46
2023/01/27 10:52:55;;;;;;;;;;;;;;;5.52;81.94;98676.72;5093952;28;19940;-46
2023/01/27 10:55:27;;;;;;;;;;;;;;;5.73;80.97;98674.94;5094388;28;19912;-47
2023/01/27 10:58:15;;;;;;;;;;;;;;;5.57;81.54;98686.66;5108733;28;19954;-47
2023/01/27 11:00:40;;;;;;;;;;;;;;;5.77;80.63;98671.72;5114901;28;19919;-44
2023/01/27 11:03:12;;;;;;;;;;;;;;;5.54;81.25;98673.84;5114631;28;19916;-46
2023/01/27 11:05:50;;;;;;;;;;;;;;;5.28;83.08;98672.72;5114938;28;19947;-46
2023/01/27 11:08:16;;;;;;;;;;;;;;;5.87;82.14;98666.06;5115101;28;20295;-46
2023/01/27 11:13:36;;;;;;;;;;;;;;;5.48;83.19;98654.34;5114333;28;19981;-46
2023/01/27 11:16:03;;;;;;;;;;;;;;;5.65;82.22;98647.72;5115016;28;19925;-47
2023/01/27 11:18:29;;;;;;;;;;;;;;;5.97;80.74;98636.66;5105772;28;19916;-48
2023/01/27 11:20:56;;;;;;;;;;;;;;;6.33;78.85;98646.03;5093771;28;19924;-47
2023/01/27 11:23:33;;;;;;;;;;;;;;;6.15;79.66;98641.34;5093243;28;20372;-47
2023/01/27 11:25:58;;;;;;;;;;;;;;;6.56;78.83;98646.44;5091158;28;19912;-48
2023/01/27 11:28:41;;;;;;;;;;;;;;;6.42;79.63;98648.28;5093487;28;19919;-47
2023/01/27 11:31:15;;;;;;;;;;;;;;;5.93;81.37;98649.41;5092178;28;20309;-46
2023/01/27 11:34:03;;;;;;;;;;;;;;;5.93;82.79;98653.88;5091137;28;19912;-47
2023/01/27 11:36:29;;;;;;;;;;;;;;;5.93;81.13;98659.97;5093024;28;19912;-37
2023/01/27 11:38:56;;;;;;;;;;;;;;;5.95;81.84;98655.31;5093218;28;19926;-37
2023/01/27 11:41:22;;;;;;;;;;;;;;;5.59;81.90;98659.03;5093261;28;19993;-38
2023/01/27 11:43:47;;;;;;;;;;;;;;;5.83;81.87;98657.72;5092851;28;19951;-36
2023/01/27 11:46:16;;;;;;;;;;;;;;;5.37;84.16;98655.72;5093008;28;19912;-37
2023/01/27 11:48:45;;;;;;;;;;;;;;;5.39;83.76;98647.63;5092701;28;20296;-37
2023/01/27 11:51:17;;;;;;;;;;;;;;;5.83;82.46;98639.22;5092636;28;19912;-38
2023/01/27 11:53:44;;;;;;;;;;;;;;;5.86;82.02;98649.41;5092548;28;19920;-36
2023/01/27 11:56:15;;;;;;;;;;;;;;;6.18;80.58;98636.47;5091452;28;19919;-36
2023/01/27 11:59:04;;;;;;;;;;;;;;;5.73;82.34;98643.25;5112083;28;19912;-36
2023/01/27 12:01:52;;;;;;;;;;;;;;;5.58;83.38;98640.75;5108716;28;19912;-36
2023/01/27 12:04:20;;;;;;;;;;;;;;;6.03;82.01;98638.47;5108262;28;19916;-36
2023/01/27 12:06:55;;;;;;;;;;;;;;;5.99;81.91;98637.25;5111365;28;19916;-37
2023/01/27 12:09:30;;;;;;;;;;;;;;;5.88;81.97;98630.69;5112057;28;19924;-36
2023/01/27 12:12:13;;;;;;;;;;;;;;;5.81;82.74;98640.44;5109927;28;19924;-36
2023/01/27 12:14:49;;;;;;;;;;;;;;;5.80;82.40;98628.25;5089324;28;19921;-37
2023/01/27 12:17:20;;;;;;;;;;;;;;;6.39;80.53;98639.94;5091549;28;20011;-37
2023/01/27 12:19:46;;;;;;;;;;;;;;;6.38;79.78;98623.28;5091802;28;20482;-37
2023/01/27 12:22:38;;;;;;;;;;;;;;;5.92;81.47;98621.38;5091945;28;19967;-36
2023/01/27 12:25:06;;;;;;;;;;;;;;;5.87;82.44;98629.09;5089720;28;19923;-37
2023/01/27 12:27:37;;;;;;;;;;;;;;;5.62;82.75;98626.19;5091350;28;19960;-36
2023/01/27 12:30:05;;;;;;;;;;;;;;;5.61;82.54;98611.34;5091503;28;19951;-37
2023/01/27 12:32:30;;;;;;;;;;;;;;;5.39;82.76;98613.31;5091514;28;19913;-37
2023/01/27 12:34:55;;;;;;;;;;;;;;;5.68;82.04;98604.28;5091493;28;19916;-36
2023/01/27 12:37:32;;;;;;;;;;;;;;;5.82;81.62;98605.09;5091126;28;20086;-37
2023/01/27 12:40:02;;;;;;;;;;;;;;;6.17;80.72;98612.88;5091576;28;20443;-37
2023/01/27 12:42:34;;;;;;;;;;;;;;;6.37;79.72;98618.19;5091140;28;19912;-36
2023/01/27 12:45:15;;;;;;;;;;;;;;;6.05;81.31;98610.03;5091811;28;19947;-35
2023/01/27 12:47:53;;;;;;;;;;;;;;;6.21;80.54;98607.00;5090361;28;20532;-35
2023/01/27 12:50:23;;;;;;;;;;;;;;;5.96;81.40;98605.97;5070562;28;20279;-36
2023/01/27 12:53:12;;;;;;;;;;;;;;;5.90;81.55;98607.53;5070593;28;20362;-36
2023/01/27 12:55:39;;;;;;;;;;;;;;;6.14;81.19;98608.03;5067747;28;19919;-37
2023/01/27 12:58:04;;;;;;;;;;;;;;;6.33;80.32;98609.84;5102447;28;19912;-37
2023/01/27 13:00:33;;;;;;;;;;;;;;;6.41;79.09;98614.13;5111530;28;19983;-35
2023/01/27 13:03:08;;;;;;;;;;;;;;;6.20;79.80;98607.22;5111264;28;19939;-35
2023/01/27 13:05:37;;;;;;;;;;;;;;;6.36;79.75;98619.19;5111865;28;19919;-37
2023/01/27 13:08:03;;;;;;;;;;;;;;;6.49;78.86;98610.44;5111720;28;19986;-37
2023/01/27 13:10:28;;;;;;;;;;;;;;;6.78;76.93;98601.28;5111344;28;20392;-37
2023/01/27 13:12:56;;;;;;;;;;;;;;;6.65;78.13;98605.56;5102832;28;20280;-37
2023/01/27 13:15:22;;;;;;;;;;;;;;;6.62;78.06;98605.97;5090207;28;19912;-36
2023/01/27 13:17:58;;;;;;;;;;;;;;;6.84;77.40;98600.44;5089508;28;20387;-37
2023/01/27 13:20:23;;;;;;;;;;;;;;;6.76;77.58;98606.78;5090634;28;20014;-36
2023/01/27 13:23:08;;;;;;;;;;;;;;;6.93;76.58;98609.78;5090886;28;20069;-36
2023/01/27 13:25:37;;;;;;;;;;;;;;;6.17;79.83;98602.31;5090871;28;20432;-36
2023/01/27 13:28:04;;;;;;;;;;;;;;;6.49;78.77;98605.16;5091301;28;19912;-36
2023/01/27 13:30:34;;;;;;;;;;;;;;;6.64;77.59;98619.81;5091120;28;19912;-44
2023/01/27 13:33:09;;;;;;;;;;;;;;;6.97;77.27;98624.22;5090972;28;19916;-41
2023/01/27 13:35:41;;;;;;;;;;;;;;;6.76;77.32;98624.44;5091044;28;19912;-35
2023/01/27 13:38:12;;;;;;;;;;;;;;;5.98;80.63;98607.41;5091076;28;19916;-36
2023/01/27 13:40:43;;;;;;;;;;;;;;;6.43;79.13;98610.25;5091270;28;19962;-36